createdAt,value
2018-04-26T00:00:29.061Z,2.90
2018-04-26T00:03:34.297Z,3.10
2018-04-26T00:06:40.450Z,2.80
2018-04-26T00:09:45.637Z,3.47
2018-04-26T00:12:50.667Z,3.70
2018-04-26T00:15:55.865Z,3.50
2018-04-26T00:19:01.499Z,3.40
2018-04-26T00:22:07.658Z,3.03
2018-04-26T00:25:13.725Z,2.53
2018-04-26T00:28:19.881Z,3.20
2018-04-26T00:31:25.889Z,3.23
2018-04-26T00:34:31.090Z,3.37
2018-04-26T00:37:36.298Z,3.70
2018-04-26T00:40:42.466Z,3.53
2018-04-26T00:43:47.678Z,3.47
2018-04-26T00:46:52.893Z,3.03
2018-04-26T00:49:58.603Z,3.60
2018-04-26T00:53:04.729Z,4.27
2018-04-26T00:56:10.621Z,4.17
2018-04-26T00:59:16.542Z,3.87
2018-04-26T01:02:21.428Z,4.50
2018-04-26T01:05:27.515Z,4.70
2018-04-26T01:08:33.164Z,4.70
2018-04-26T01:11:38.352Z,3.20
2018-04-26T01:14:43.573Z,3.80
2018-04-26T01:17:48.769Z,4.43
2018-04-26T01:20:53.982Z,4.40
2018-04-26T01:23:59.405Z,4.53
2018-04-26T01:27:04.039Z,4.27
2018-04-26T01:30:09.968Z,4.93
2018-04-26T01:33:15.778Z,4.53
2018-04-26T01:36:33.006Z,5.10
2018-04-26T01:39:38.593Z,5.03
2018-04-26T01:42:44.709Z,4.77
2018-04-26T01:45:50.337Z,5.20
2018-04-26T01:48:56.061Z,5.90
2018-04-26T01:52:01.905Z,5.90
2018-04-26T01:55:07.561Z,5.60
2018-04-26T01:58:19.345Z,6.30
2018-04-26T02:01:24.817Z,6.57
2018-04-26T02:04:30.101Z,6.70
2018-04-26T02:07:35.393Z,6.77
2018-04-26T02:10:40.682Z,6.50
2018-04-26T02:13:45.943Z,6.30
2018-04-26T02:16:51.226Z,6.23
2018-04-26T02:19:57.161Z,6.83
2018-04-26T02:23:02.198Z,6.30
2018-04-26T02:26:07.499Z,6.23
2018-04-26T02:29:13.194Z,6.40
2018-04-26T02:32:19.378Z,5.87
2018-04-26T02:35:24.648Z,5.77
2018-04-26T02:38:30.958Z,6.17
2018-04-26T02:41:36.741Z,5.00
2018-04-26T02:44:42.818Z,5.33
2018-04-26T02:47:49.014Z,4.57
2018-04-26T02:50:54.317Z,5.00
2018-04-26T02:54:00.030Z,5.50
2018-04-26T02:57:06.221Z,4.80
2018-04-26T03:00:11.531Z,5.20
2018-04-26T03:03:16.800Z,4.17
2018-04-26T03:06:22.823Z,5.07
2018-04-26T03:09:28.905Z,4.70
2018-04-26T03:12:35.122Z,4.90
2018-04-26T03:15:41.297Z,4.30
2018-04-26T03:18:47.115Z,4.60
2018-04-26T03:21:52.383Z,4.70
2018-04-26T03:24:57.645Z,4.20
2018-04-26T03:28:03.598Z,4.30
2018-04-26T03:31:08.943Z,4.50
2018-04-26T03:34:13.899Z,5.23
2018-04-26T03:37:21.075Z,4.53
2018-04-26T03:40:26.126Z,4.40
2018-04-26T03:43:31.950Z,4.50
2018-04-26T03:46:36.935Z,4.13
2018-04-26T03:49:42.221Z,3.70
2018-04-26T03:52:47.256Z,4.30
2018-04-26T03:55:52.254Z,4.40
2018-04-26T03:58:57.548Z,4.80
2018-04-26T04:02:13.350Z,4.70
2018-04-26T04:05:31.314Z,4.50
2018-04-26T04:08:37.490Z,4.87
2018-04-26T04:11:42.775Z,5.10
2018-04-26T04:14:48.027Z,5.50
2018-04-26T04:17:54.201Z,4.40
2018-04-26T04:20:59.505Z,4.90
2018-04-26T04:24:04.775Z,5.17
2018-04-26T04:27:09.817Z,4.93
2018-04-26T04:30:16.737Z,5.33
2018-04-26T04:33:22.924Z,5.90
2018-04-26T04:36:29.009Z,6.00
2018-04-26T04:39:34.958Z,6.03
2018-04-26T04:42:40.977Z,4.60
2018-04-26T04:45:47.136Z,4.90
2018-04-26T04:48:53.221Z,4.50
2018-04-26T04:51:58.723Z,5.50
2018-04-26T04:55:04.314Z,4.93
2018-04-26T04:58:11.494Z,4.73
2018-04-26T05:01:16.997Z,4.83
2018-04-26T05:04:23.175Z,4.70
2018-04-26T05:07:29.417Z,4.47
2018-04-26T05:10:34.689Z,4.57
2018-04-26T05:13:39.962Z,4.67
2018-04-26T05:16:45.214Z,4.93
2018-04-26T05:19:50.564Z,4.77
2018-04-26T05:22:56.922Z,5.00
2018-04-26T05:26:02.789Z,4.93
2018-04-26T05:29:08.097Z,5.50
2018-04-26T05:32:13.373Z,4.80
2018-04-26T05:35:18.682Z,5.60
2018-04-26T05:38:24.877Z,4.67
2018-04-26T05:41:30.149Z,4.83
2018-04-26T05:44:35.182Z,4.77
2018-04-26T05:47:40.831Z,5.27
2018-04-26T05:50:46.666Z,5.73
2018-04-26T05:53:51.927Z,5.13
2018-04-26T05:56:57.200Z,5.53
2018-04-26T06:00:02.453Z,6.40
2018-04-26T06:03:08.541Z,6.17
2018-04-26T06:06:14.714Z,6.00
2018-04-26T06:09:20.835Z,7.50
2018-04-26T06:12:26.930Z,7.73
2018-04-26T06:15:32.898Z,7.67
2018-04-26T06:18:39.072Z,7.90
2018-04-26T06:21:45.073Z,8.80
2018-04-26T06:24:51.254Z,7.57
2018-04-26T06:27:57.386Z,8.30
2018-04-26T06:31:03.649Z,10.27
2018-04-26T06:34:09.906Z,9.10
2018-04-26T06:37:16.065Z,9.97
2018-04-26T06:40:21.327Z,7.50
2018-04-26T06:43:26.596Z,9.83
2018-04-26T06:46:32.768Z,9.23
2018-04-26T06:49:38.040Z,8.60
2018-04-26T06:52:44.225Z,8.13
2018-04-26T06:55:50.421Z,7.67
2018-04-26T06:58:55.714Z,7.83
2018-04-26T07:02:01.931Z,8.73
2018-04-26T07:05:07.198Z,7.90
2018-04-26T07:08:12.471Z,8.17
2018-04-26T07:11:18.654Z,7.67
2018-04-26T07:14:24.740Z,8.97
2018-04-26T07:17:30.841Z,8.23
2018-04-26T07:20:36.584Z,8.30
2018-04-26T07:23:42.809Z,6.80
2018-04-26T07:26:47.813Z,7.90
2018-04-26T07:29:53.619Z,6.60
2018-04-26T07:32:59.804Z,7.33
2018-04-26T07:36:05.697Z,6.83
2018-04-26T07:39:12.732Z,6.10
2018-04-26T07:42:18.483Z,5.77
2018-04-26T07:45:24.750Z,6.07
2018-04-26T07:48:30.965Z,5.90
2018-04-26T07:51:37.167Z,6.10
2018-04-26T07:54:43.437Z,7.00
2018-04-26T07:57:50.256Z,7.27
2018-04-26T08:00:55.530Z,5.90
2018-04-26T08:04:01.326Z,5.73
2018-04-26T08:07:07.412Z,6.67
2018-04-26T08:10:13.603Z,6.60
2018-04-26T08:13:19.757Z,6.00
2018-04-26T08:16:25.863Z,5.00
2018-04-26T08:19:32.112Z,5.40
2018-04-26T08:22:37.943Z,6.00
2018-04-26T08:25:43.218Z,5.23
2018-04-26T08:28:49.658Z,5.80
2018-04-26T08:31:55.786Z,5.60
2018-04-26T08:35:01.945Z,4.77
2018-04-26T08:38:07.818Z,5.43
2018-04-26T08:41:13.079Z,6.27
2018-04-26T08:44:19.273Z,5.37
2018-04-26T08:47:25.354Z,5.70
2018-04-26T08:50:31.166Z,6.77
2018-04-26T08:53:36.434Z,6.80
2018-04-26T08:56:42.249Z,6.47
2018-04-26T08:59:48.299Z,6.57
2018-04-26T09:02:54.214Z,7.73
2018-04-26T09:05:59.518Z,6.27
2018-04-26T09:09:04.226Z,4.00
2018-04-26T09:12:10.019Z,3.13
2018-04-26T09:15:16.097Z,2.43
2018-04-26T09:18:22.251Z,2.43
2018-04-26T09:21:27.515Z,3.77
2018-04-26T09:24:33.534Z,5.87
2018-04-26T09:27:39.529Z,3.40
2018-04-26T09:30:45.560Z,3.00
2018-04-26T09:33:51.542Z,3.13
2018-04-26T09:36:56.897Z,2.50
2018-04-26T09:40:02.897Z,3.00
2018-04-26T09:43:09.105Z,2.70
2018-04-26T09:46:13.775Z,2.43
2018-04-26T09:49:20.001Z,2.70
2018-04-26T09:52:26.194Z,2.60
2018-04-26T09:55:32.409Z,2.60
2018-04-26T09:58:37.728Z,3.10
2018-04-26T10:01:43.233Z,3.23
2018-04-26T10:04:55.150Z,3.90
2018-04-26T10:08:01.162Z,3.13
2018-04-26T10:11:06.829Z,3.70
2018-04-26T10:14:12.774Z,5.07
2018-04-26T10:17:18.033Z,2.40
2018-04-26T10:20:24.221Z,3.13
2018-04-26T10:23:29.486Z,2.60
2018-04-26T10:26:35.326Z,2.50
2018-04-26T10:29:41.365Z,2.27
2018-04-26T10:32:47.502Z,1.43
2018-04-26T10:35:53.697Z,1.90
2018-04-26T10:38:59.677Z,1.17
2018-04-26T10:42:05.890Z,1.60
2018-04-26T10:45:11.957Z,2.57
2018-04-26T10:48:18.057Z,4.07
2018-04-26T10:51:24.151Z,2.23
2018-04-26T10:54:30.276Z,2.40
2018-04-26T10:57:35.917Z,2.83
2018-04-26T11:00:41.197Z,1.50
2018-04-26T11:03:47.448Z,1.80
2018-04-26T11:06:53.442Z,2.20
2018-04-26T11:09:59.654Z,1.27
2018-04-26T11:13:04.933Z,1.77
2018-04-26T11:16:10.201Z,2.00
2018-04-26T11:19:16.382Z,1.63
2018-04-26T11:22:22.486Z,1.97
2018-04-26T11:25:28.600Z,1.50
2018-04-26T11:28:34.789Z,1.90
2018-04-26T11:31:40.054Z,2.20
2018-04-26T11:34:46.255Z,1.57
2018-04-26T11:37:51.518Z,1.50
2018-04-26T11:40:56.833Z,1.63
2018-04-26T11:44:03.001Z,2.20
2018-04-26T11:47:09.296Z,1.97
2018-04-26T11:50:15.088Z,2.20
2018-04-26T11:53:21.310Z,1.70
2018-04-26T11:56:27.132Z,2.23
2018-04-26T11:59:33.477Z,1.97
2018-04-26T12:02:39.460Z,1.70
2018-04-26T12:05:45.385Z,1.63
2018-04-26T12:08:51.466Z,2.20
2018-04-26T12:11:57.471Z,1.60
2018-04-26T12:15:02.783Z,1.73
2018-04-26T12:18:08.861Z,1.63
2018-04-26T12:21:15.081Z,1.57
2018-04-26T12:24:21.179Z,1.70
2018-04-26T12:27:27.114Z,1.57
2018-04-26T12:30:33.309Z,1.83
2018-04-26T12:33:39.211Z,1.80
2018-04-26T12:36:45.119Z,1.40
2018-04-26T12:39:51.210Z,2.27
2018-04-26T12:42:57.400Z,1.30
2018-04-26T12:46:02.660Z,2.20
2018-04-26T12:49:08.925Z,1.87
2018-04-26T12:52:14.406Z,1.73
2018-04-26T12:55:20.615Z,1.37
2018-04-26T12:58:26.711Z,1.23
2018-04-26T13:01:32.582Z,1.57
2018-04-26T13:04:38.579Z,1.87
2018-04-26T13:07:44.615Z,1.07
2018-04-26T13:10:50.810Z,1.23
2018-04-26T13:13:56.819Z,1.03
2018-04-26T13:17:03.034Z,1.00
2018-04-26T13:20:08.945Z,1.10
2018-04-26T13:23:15.145Z,1.40
2018-04-26T13:26:21.409Z,1.27
2018-04-26T13:29:27.447Z,1.70
2018-04-26T13:32:33.552Z,1.20
2018-04-26T13:35:39.762Z,1.60
2018-04-26T13:38:45.989Z,1.20
2018-04-26T13:41:51.265Z,1.43
2018-04-26T13:44:56.689Z,1.50
2018-04-26T13:48:03.056Z,1.40
2018-04-26T13:51:08.094Z,1.27
2018-04-26T13:54:13.398Z,1.57
2018-04-26T13:57:18.687Z,1.30
2018-04-26T14:00:23.962Z,1.23
2018-04-26T14:03:30.198Z,1.10
2018-04-26T14:06:36.281Z,2.13
2018-04-26T14:09:42.280Z,1.40
2018-04-26T14:12:48.017Z,1.23
2018-04-26T14:15:53.326Z,1.40
2018-04-26T14:18:59.380Z,2.07
2018-04-26T14:22:05.589Z,1.30
2018-04-26T14:25:11.842Z,1.33
2018-04-26T14:28:17.922Z,1.73
2018-04-26T14:31:23.813Z,1.60
2018-04-26T14:34:30.061Z,1.57
2018-04-26T14:37:35.413Z,1.20
2018-04-26T14:40:40.827Z,1.60
2018-04-26T14:43:47.008Z,1.67
2018-04-26T14:46:53.188Z,1.40
2018-04-26T14:49:59.309Z,1.40
2018-04-26T14:53:05.515Z,1.50
2018-04-26T14:56:11.424Z,1.77
2018-04-26T14:59:18.071Z,1.30
2018-04-26T15:02:23.341Z,1.60
2018-04-26T15:05:30.521Z,1.80
2018-04-26T15:08:36.065Z,1.63
2018-04-26T15:11:41.358Z,1.10
2018-04-26T15:14:46.645Z,1.30
2018-04-26T15:17:51.912Z,1.60
2018-04-26T15:20:57.321Z,1.80
2018-04-26T15:24:02.583Z,1.50
2018-04-26T15:27:08.770Z,1.90
2018-04-26T15:30:14.870Z,1.47
2018-04-26T15:33:21.053Z,1.70
2018-04-26T15:36:27.315Z,1.50
2018-04-26T15:39:33.339Z,1.63
2018-04-26T15:42:39.429Z,1.60
2018-04-26T15:45:45.530Z,1.50
2018-04-26T15:48:51.539Z,1.43
2018-04-26T15:51:57.633Z,1.90
2018-04-26T15:59:03.235Z,1.97
2018-04-26T16:02:25.551Z,2.00
2018-04-26T16:05:41.509Z,1.53
2018-04-26T16:08:57.497Z,1.50
2018-04-26T16:16:03.618Z,1.77
2018-04-26T16:19:27.877Z,1.40
2018-04-26T16:26:34.481Z,1.57
2018-04-26T16:29:50.486Z,2.00
2018-04-26T16:36:51.431Z,1.40
2018-04-26T16:39:56.330Z,1.17
2018-04-26T16:43:01.337Z,1.50
2018-04-26T16:46:06.814Z,2.50
2018-04-26T16:49:12.116Z,1.53
2018-04-26T16:52:18.498Z,1.83
2018-04-26T16:55:24.398Z,1.77
2018-04-26T16:58:29.674Z,1.97
2018-04-26T17:01:34.945Z,1.73
2018-04-26T17:04:40.346Z,1.67
2018-04-26T17:07:46.636Z,1.57
2018-04-26T17:10:52.612Z,1.87
2018-04-26T17:13:58.650Z,2.50
2018-04-26T17:17:04.648Z,2.13
2018-04-26T17:20:10.843Z,2.10
2018-04-26T17:23:16.948Z,2.13
2018-04-26T17:26:22.213Z,2.93
2018-04-26T17:29:28.010Z,2.20
2018-04-26T17:32:33.310Z,2.10
2018-04-26T17:35:39.517Z,2.30
2018-04-26T17:38:44.853Z,2.27
2018-04-26T17:41:50.182Z,1.90
2018-04-26T17:44:56.369Z,2.20
2018-04-26T17:48:02.607Z,2.93
2018-04-26T17:51:08.090Z,2.20
2018-04-26T17:54:13.421Z,1.87
2018-04-26T17:57:18.724Z,1.97
2018-04-26T18:00:24.802Z,2.43
2018-04-26T18:03:31.115Z,1.87
2018-04-26T18:06:37.059Z,2.50
2018-04-26T18:09:42.342Z,2.03
2018-04-26T18:12:48.455Z,1.60
2018-04-26T18:15:54.398Z,2.77
2018-04-26T18:19:00.330Z,2.20
2018-04-26T18:22:06.400Z,1.60
2018-04-26T18:25:12.591Z,2.07
2018-04-26T18:28:18.063Z,1.60
2018-04-26T18:31:23.972Z,2.40
2018-04-26T18:34:30.458Z,2.10
2018-04-26T18:37:35.775Z,2.20
2018-04-26T18:40:41.030Z,2.60
2018-04-26T18:43:47.233Z,2.53
2018-04-26T18:46:53.324Z,2.07
2018-04-26T18:49:59.234Z,2.00
2018-04-26T18:53:05.337Z,2.43
2018-04-26T18:56:11.383Z,1.90
2018-04-26T18:59:18.183Z,2.53
2018-04-26T19:02:24.257Z,3.07
2018-04-26T19:05:30.133Z,2.47
2018-04-26T19:08:36.019Z,2.20
2018-04-26T19:11:42.027Z,2.87
2018-04-26T19:14:49.187Z,1.87
2018-04-26T19:17:54.430Z,2.20
2018-04-26T19:21:01.009Z,2.90
2018-04-26T19:24:06.815Z,2.30
2018-04-26T19:27:13.071Z,2.10
2018-04-26T19:30:19.082Z,2.43
2018-04-26T19:33:25.194Z,2.07
2018-04-26T19:36:31.125Z,2.10
2018-04-26T19:39:37.022Z,1.90
2018-04-26T19:42:42.928Z,2.17
2018-04-26T19:45:49.667Z,2.10
2018-04-26T19:48:54.649Z,2.70
2018-04-26T19:52:00.846Z,1.60
2018-04-26T19:55:06.952Z,2.30
2018-04-26T19:58:12.917Z,2.57
2018-04-26T20:01:19.798Z,2.03
2018-04-26T20:04:26.112Z,1.80
2018-04-26T20:07:31.393Z,2.00
2018-04-26T20:10:37.797Z,1.63
2018-04-26T20:13:43.830Z,2.50
2018-04-26T20:16:49.899Z,2.10
2018-04-26T20:19:56.053Z,2.13
2018-04-26T20:23:01.771Z,1.83
2018-04-26T20:26:07.858Z,2.20
2018-04-26T20:29:14.125Z,2.20
2018-04-26T20:32:20.098Z,2.23
2018-04-26T20:35:25.373Z,2.07
2018-04-26T20:38:30.634Z,2.07
2018-04-26T20:41:47.732Z,2.60
2018-04-26T20:44:53.970Z,2.50
2018-04-26T20:47:59.279Z,2.93
2018-04-26T20:51:05.258Z,3.10
2018-04-26T20:54:10.777Z,3.07
2018-04-26T20:57:16.056Z,2.80
2018-04-26T21:00:22.813Z,3.20
2018-04-26T21:03:28.955Z,2.63
2018-04-26T21:06:35.194Z,2.53
2018-04-26T21:09:42.416Z,3.07
2018-04-26T21:12:48.219Z,2.80
2018-04-26T21:15:54.326Z,2.70
2018-04-26T21:18:59.616Z,1.83
2018-04-26T21:22:05.534Z,2.40
2018-04-26T21:25:11.663Z,2.73
2018-04-26T21:28:17.697Z,2.40
2018-04-26T21:31:23.709Z,2.53
2018-04-26T21:34:29.818Z,2.47
2018-04-26T21:37:35.633Z,3.13
2018-04-26T21:40:41.777Z,2.80
2018-04-26T21:43:48.029Z,2.17
2018-04-26T21:46:54.041Z,2.70
2018-04-26T21:50:05.362Z,3.17
2018-04-26T21:53:15.898Z,3.17
2018-04-26T21:56:26.922Z,3.27
2018-04-26T21:59:38.151Z,2.77
2018-04-26T22:02:42.646Z,3.67
2018-04-26T22:05:48.654Z,3.37
2018-04-26T22:08:54.665Z,3.00
2018-04-26T22:12:00.754Z,2.40
2018-04-26T22:15:06.669Z,3.43
2018-04-26T22:18:11.955Z,3.57
2018-04-26T22:21:18.170Z,3.83
2018-04-26T22:24:24.175Z,3.97
2018-04-26T22:27:30.079Z,3.63
2018-04-26T22:30:35.991Z,3.60
2018-04-26T22:33:42.925Z,3.40
2018-04-26T22:36:48.707Z,3.83
2018-04-26T22:39:54.623Z,3.63
2018-04-26T22:43:00.614Z,3.50
2018-04-26T22:46:06.638Z,3.80
2018-04-26T22:49:12.756Z,3.53
2018-04-26T22:52:18.036Z,3.57
2018-04-26T22:55:23.333Z,3.77
2018-04-26T22:58:28.640Z,3.27
2018-04-26T23:01:33.923Z,3.70
2018-04-26T23:04:39.222Z,3.83
2018-04-26T23:07:44.526Z,2.87
2018-04-26T23:10:49.850Z,3.37
2018-04-26T23:13:55.143Z,2.80
2018-04-26T23:17:01.258Z,3.20
2018-04-26T23:20:07.279Z,3.47
2018-04-26T23:23:13.395Z,2.93
2018-04-26T23:26:19.342Z,2.40
2018-04-26T23:29:26.434Z,2.70
2018-04-26T23:32:32.235Z,3.10
2018-04-26T23:35:38.242Z,2.13
2018-04-26T23:38:44.294Z,2.17
2018-04-26T23:41:50.266Z,2.73
2018-04-26T23:44:55.270Z,2.00
2018-04-26T23:48:00.549Z,3.10
2018-04-26T23:51:06.754Z,2.60
2018-04-26T23:54:12.043Z,3.37
2018-04-26T23:57:17.331Z,2.50
